Alkin Kalkavan — TCOL6 — position and weather

sailwx.info

Track history (hours):
 
Tides and Currents Weather Stations Pressure Air Temp Water Temp Dewpoint Dewpoint Depression Visibility Wind Speed Wind Dir Waves Ship Positions

Alkin Kalkavan

Last reported at 2015-May-28 15:18 UTC. Time now 2015-May-29 12:24 UTC.
Position N 34°39' E 033°41'.

Length 150 m; draft 7.6 m.

Type: Ship. MMSI: 271000905.

Date/timePositionNaut miles runAvg speedWind from/ knotsBaromVisibWave heightAir tempDewpointWater temp
2015-May-28 15:18N 34°39' E 033°41'1115.1
2015-May-28 14:33N 34°34' E 033°29'1514.7
2015-May-28 13:34N 34°27' E 033°13'1514.4
2015-May-28 12:33N 34°26' E 032°56'1515.4
2015-May-28 11:34N 34°30' E 032°38'28214.6
2015-May-27 16:15N 36°36' E 027°28'3312.1
2015-May-27 13:31N 37°02' E 027°03'  
2015-May-24 12:21N 40°53' E 028°27'1113.8
2015-May-24 11:33N 40°56' E 028°41'1 0.4
2015-May-24 07:32N 40°58' E 028°41'0 0.0
2015-May-24 06:14N 40°58' E 028°41'0 0.0
2015-May-24 05:33N 40°58' E 028°41'8 8.1
2015-May-24 04:33N 40°52' E 028°49'1515.0
2015-May-24 03:33N 40°45' E 029°06'1514.5
2015-May-24 02:33N 40°45' E 029°26'1312.6
2015-May-24 01:32N 40°46' E 029°42'  
2015-May-21 17:13N 40°25' E 026°45'3713.6
2015-May-21 14:30N 40°01' E 026°09'19 9.2
2015-May-21 12:29N 39°49' E 025°50'18414.2
2015-May-20 23:33N 36°57' E 027°13'2410.8
2015-May-20 21:21N 36°36' E 027°27'18814.7
2015-May-20 08:33N 35°10' E 030°52'6014.9
2015-May-20 04:32N 34°33' E 031°49'1515.1
2015-May-20 03:33N 34°23' E 032°03'1514.8
2015-May-20 02:32N 34°14' E 032°18'1414.5
2015-May-20 01:33N 34°06' E 032°32'1414.6
2015-May-20 00:33N 33°58' E 032°46'1514.9
2015-May-19 23:33N 33°49' E 033°00'1515.1
2015-May-19 22:33N 33°40' E 033°15'1515.4
2015-May-19 21:33N 33°31' E 033°30'1615.9
2015-May-19 20:33N 33°22' E 033°45'1616.1
2015-May-19 19:34N 33°12' E 034°01'1616.0
2015-May-19 18:33N 33°02' E 034°16'1515.3
2015-May-19 17:33N 32°58' E 034°33'1515.0
2015-May-19 16:32N 32°54' E 034°51'5 0.3
2015-May-19 00:33N 32°49' E 034°50'1515.1
2015-May-18 23:33N 32°35' E 034°44'1515.0
2015-May-18 22:33N 32°20' E 034°40'  
Track history (hours):
 
Tides and Currents Weather Stations Pressure Air Temp Water Temp Dewpoint Dewpoint Depression Visibility Wind Speed Wind Dir Waves Ship Positions

Alkin Kalkavan

Last reported at 2015-May-28 15:18 UTC. Time now 2015-May-29 12:24 UTC.
Position N 34°39' E 033°41'.

Length 150 m; draft 7.6 m.

Type: Ship. MMSI: 271000905.

Date/timePositionNaut miles runAvg speedWind from/ knotsBaromVisibWave heightAir tempDewpointWater temp
2015-May-28 15:18N 34°39' E 033°41'1115.1
2015-May-28 14:33N 34°34' E 033°29'1514.7
2015-May-28 13:34N 34°27' E 033°13'1514.4
2015-May-28 12:33N 34°26' E 032°56'1515.4
2015-May-28 11:34N 34°30' E 032°38'28214.6
2015-May-27 16:15N 36°36' E 027°28'3312.1
2015-May-27 13:31N 37°02' E 027°03'  
2015-May-24 12:21N 40°53' E 028°27'1113.8
2015-May-24 11:33N 40°56' E 028°41'1 0.4
2015-May-24 07:32N 40°58' E 028°41'0 0.0
2015-May-24 06:14N 40°58' E 028°41'0 0.0
2015-May-24 05:33N 40°58' E 028°41'8 8.1
2015-May-24 04:33N 40°52' E 028°49'1515.0
2015-May-24 03:33N 40°45' E 029°06'1514.5
2015-May-24 02:33N 40°45' E 029°26'1312.6
2015-May-24 01:32N 40°46' E 029°42'  
2015-May-21 17:13N 40°25' E 026°45'3713.6
2015-May-21 14:30N 40°01' E 026°09'19 9.2
2015-May-21 12:29N 39°49' E 025°50'18414.2
2015-May-20 23:33N 36°57' E 027°13'2410.8
2015-May-20 21:21N 36°36' E 027°27'18814.7
2015-May-20 08:33N 35°10' E 030°52'6014.9
2015-May-20 04:32N 34°33' E 031°49'1515.1
2015-May-20 03:33N 34°23' E 032°03'1514.8
2015-May-20 02:32N 34°14' E 032°18'1414.5
2015-May-20 01:33N 34°06' E 032°32'1414.6
2015-May-20 00:33N 33°58' E 032°46'1514.9
2015-May-19 23:33N 33°49' E 033°00'1515.1
2015-May-19 22:33N 33°40' E 033°15'1515.4
2015-May-19 21:33N 33°31' E 033°30'1615.9
2015-May-19 20:33N 33°22' E 033°45'1616.1
2015-May-19 19:34N 33°12' E 034°01'1616.0
2015-May-19 18:33N 33°02' E 034°16'1515.3
2015-May-19 17:33N 32°58' E 034°33'1515.0
2015-May-19 16:32N 32°54' E 034°51'5 0.3
2015-May-19 00:33N 32°49' E 034°50'1515.1
2015-May-18 23:33N 32°35' E 034°44'1515.0
2015-May-18 22:33N 32°20' E 034°40'  

Dump ship's entire track history